createdAt,value
2022-11-21T00:01:20.549Z,5.70
2022-11-21T00:03:48.109Z,5.70
2022-11-21T00:06:16.365Z,5.70
2022-11-21T00:08:44.004Z,5.80
2022-11-21T00:11:11.967Z,5.70
2022-11-21T00:13:39.335Z,5.70
2022-11-21T00:16:08.408Z,5.70
2022-11-21T00:18:36.159Z,5.70
2022-11-21T00:21:10.793Z,5.70
2022-11-21T00:23:38.030Z,5.70
2022-11-21T00:26:09.508Z,5.70
2022-11-21T00:28:36.869Z,5.70
2022-11-21T00:31:04.970Z,5.70
2022-11-21T00:33:33.132Z,5.80
2022-11-21T00:36:09.614Z,5.70
2022-11-21T00:38:37.673Z,5.80
2022-11-21T00:41:05.642Z,5.70
2022-11-21T00:43:33.291Z,5.70
2022-11-21T00:46:03.065Z,5.80
2022-11-21T00:48:32.135Z,5.70
2022-11-21T00:51:03.289Z,5.70
2022-11-21T00:53:30.652Z,5.70
2022-11-21T00:55:58.299Z,5.70
2022-11-21T00:58:25.966Z,5.70
2022-11-21T01:00:53.388Z,5.70
2022-11-21T01:03:21.206Z,5.70
2022-11-21T01:05:48.467Z,5.70
2022-11-21T01:08:15.491Z,5.70
2022-11-21T01:10:42.762Z,5.70
2022-11-21T01:13:09.996Z,5.70
2022-11-21T01:15:37.293Z,5.70
2022-11-21T01:18:04.484Z,5.70
2022-11-21T01:20:31.777Z,5.70
2022-11-21T01:22:59.015Z,5.70
2022-11-21T01:25:26.352Z,5.70
2022-11-21T01:27:53.377Z,5.70
2022-11-21T01:30:20.793Z,5.60
2022-11-21T01:32:51.227Z,5.70
2022-11-21T01:35:19.640Z,5.70
2022-11-21T01:37:50.129Z,5.60
2022-11-21T01:40:17.532Z,5.60
2022-11-21T01:42:53.678Z,5.60
2022-11-21T01:45:48.650Z,5.70
2022-11-21T01:48:15.906Z,5.60
2022-11-21T01:50:43.330Z,5.60
2022-11-21T01:53:11.189Z,5.60
2022-11-21T01:55:38.602Z,5.60
2022-11-21T01:58:06.355Z,5.60
2022-11-21T02:00:38.797Z,5.60
2022-11-21T02:03:12.686Z,5.60
2022-11-21T02:05:41.440Z,5.60
2022-11-21T02:08:18.177Z,5.60
2022-11-21T02:10:57.103Z,5.60
2022-11-21T02:13:24.485Z,5.60
2022-11-21T02:15:51.724Z,5.60
2022-11-21T02:18:18.895Z,5.60
2022-11-21T02:20:52.808Z,5.60
2022-11-21T02:23:34.204Z,5.60
2022-11-21T02:26:01.601Z,5.60
2022-11-21T02:28:29.933Z,5.50
2022-11-21T02:30:57.471Z,5.50
2022-11-21T02:33:24.707Z,5.50
2022-11-21T02:35:59.647Z,5.50
2022-11-21T02:38:37.035Z,5.50
2022-11-21T02:41:28.643Z,5.50
2022-11-21T02:44:13.344Z,5.50
2022-11-21T02:46:49.868Z,5.50
2022-11-21T02:49:23.310Z,5.40
2022-11-21T02:51:50.481Z,5.40
2022-11-21T02:54:17.758Z,5.40
2022-11-21T02:56:44.913Z,5.40
2022-11-21T02:59:12.193Z,5.40
2022-11-21T03:01:39.396Z,5.40
2022-11-21T03:04:06.839Z,5.40
2022-11-21T03:06:34.064Z,5.30
2022-11-21T03:09:01.233Z,5.40
2022-11-21T03:11:28.283Z,5.30
2022-11-21T03:13:55.613Z,5.30
2022-11-21T03:16:23.131Z,5.30
2022-11-21T03:18:50.235Z,5.30
2022-11-21T03:21:20.144Z,5.30
2022-11-21T03:23:47.310Z,5.30
2022-11-21T03:26:14.631Z,5.30
2022-11-21T03:28:43.228Z,5.30
2022-11-21T03:31:10.733Z,5.30
2022-11-21T03:33:37.854Z,5.30
2022-11-21T03:36:05.724Z,5.30
2022-11-21T03:38:32.938Z,5.30
2022-11-21T03:41:05.370Z,5.30
2022-11-21T03:43:32.753Z,5.20
2022-11-21T03:45:59.968Z,5.20
2022-11-21T03:48:27.371Z,5.20
2022-11-21T03:50:54.739Z,5.20
2022-11-21T03:53:21.933Z,5.20
2022-11-21T03:55:49.209Z,5.20
2022-11-21T03:58:16.489Z,5.20
2022-11-21T04:00:43.781Z,5.20
2022-11-21T04:03:10.970Z,5.20
2022-11-21T04:05:38.393Z,5.20
2022-11-21T04:08:05.847Z,5.20
2022-11-21T04:10:33.188Z,5.10
2022-11-21T04:13:00.468Z,5.10
2022-11-21T04:15:27.738Z,5.10
2022-11-21T04:17:55.067Z,5.10
2022-11-21T04:20:22.448Z,5.10
2022-11-21T04:22:49.747Z,5.00
2022-11-21T04:25:17.046Z,5.00
2022-11-21T04:27:44.341Z,5.00
2022-11-21T04:30:12.134Z,5.00
2022-11-21T04:32:39.142Z,5.00
2022-11-21T04:35:06.867Z,5.00
2022-11-21T04:37:34.289Z,5.00
2022-11-21T04:40:01.698Z,5.00
2022-11-21T04:42:28.943Z,5.00
2022-11-21T04:44:56.281Z,5.00
2022-11-21T04:47:23.603Z,5.00
2022-11-21T04:49:50.878Z,5.00
2022-11-21T04:52:18.114Z,5.00
2022-11-21T04:54:45.531Z,5.00
2022-11-21T04:57:12.808Z,5.00
2022-11-21T04:59:39.907Z,5.00
2022-11-21T05:02:07.064Z,5.00
2022-11-21T05:04:34.298Z,5.00
2022-11-21T05:07:01.679Z,4.90
2022-11-21T05:09:29.249Z,4.90
2022-11-21T05:12:14.955Z,4.90
2022-11-21T05:14:42.343Z,4.90
2022-11-21T05:17:09.619Z,4.90
2022-11-21T05:19:36.904Z,4.90
2022-11-21T05:22:04.270Z,4.90
2022-11-21T05:24:31.558Z,4.90
2022-11-21T05:26:58.797Z,4.90
2022-11-21T05:29:28.221Z,4.90
2022-11-21T05:31:55.703Z,4.90
2022-11-21T05:34:23.427Z,4.90
2022-11-21T05:36:57.366Z,4.90
2022-11-21T05:39:25.067Z,4.90
2022-11-21T05:41:52.856Z,4.90
2022-11-21T05:44:20.330Z,4.90
2022-11-21T05:46:47.821Z,4.90
2022-11-21T05:49:15.218Z,4.90
2022-11-21T05:51:42.587Z,4.90
2022-11-21T05:54:15.005Z,4.90
2022-11-21T05:56:42.647Z,4.90
2022-11-21T05:59:11.713Z,4.90
2022-11-21T06:01:57.642Z,4.90
2022-11-21T06:04:24.984Z,4.90
2022-11-21T06:06:52.521Z,4.90
2022-11-21T06:09:19.911Z,4.90
2022-11-21T06:11:47.301Z,4.90
2022-11-21T06:14:14.583Z,4.90
2022-11-21T06:16:41.783Z,4.90
2022-11-21T06:19:09.068Z,4.90
2022-11-21T06:21:45.664Z,4.90
2022-11-21T06:24:13.149Z,4.90
2022-11-21T06:26:41.194Z,4.90
2022-11-21T06:29:11.837Z,5.00
2022-11-21T06:31:39.077Z,5.00
2022-11-21T06:34:06.404Z,4.90
2022-11-21T06:36:33.654Z,5.00
2022-11-21T06:39:00.975Z,4.90
2022-11-21T06:41:31.134Z,5.00
2022-11-21T06:44:01.933Z,5.00
2022-11-21T06:46:29.524Z,5.00
2022-11-21T06:48:56.750Z,5.00
2022-11-21T06:51:25.246Z,5.00
2022-11-21T06:53:59.419Z,5.00
2022-11-21T06:56:30.353Z,5.00
2022-11-21T06:58:59.320Z,5.00
2022-11-21T07:01:26.872Z,5.00
2022-11-21T07:03:54.739Z,5.00
2022-11-21T07:06:22.437Z,5.00
2022-11-21T07:09:17.700Z,5.00
2022-11-21T07:11:41.337Z,5.00
2022-11-21T07:14:09.448Z,5.00
2022-11-21T07:16:37.175Z,5.00
2022-11-21T07:19:04.495Z,5.00
2022-11-21T07:21:31.690Z,5.00
2022-11-21T07:23:59.428Z,5.00
2022-11-21T07:26:26.768Z,5.00
2022-11-21T07:28:54.042Z,5.00
2022-11-21T07:31:21.155Z,5.00
2022-11-21T07:33:48.487Z,5.00
2022-11-21T07:36:15.880Z,5.00
2022-11-21T07:38:43.188Z,5.00
2022-11-21T07:41:11.105Z,5.00
2022-11-21T07:43:38.379Z,5.00
2022-11-21T07:46:05.565Z,5.00
2022-11-21T07:48:32.746Z,5.10
2022-11-21T07:51:02.892Z,5.10
2022-11-21T07:53:30.127Z,5.10
2022-11-21T07:56:02.492Z,5.10
2022-11-21T07:58:29.662Z,5.10
2022-11-21T08:00:57.377Z,5.10
2022-11-21T08:03:25.609Z,5.10
2022-11-21T08:05:52.737Z,5.10
2022-11-21T08:08:19.950Z,5.10
2022-11-21T08:10:47.296Z,5.10
2022-11-21T08:13:15.239Z,5.10
2022-11-21T08:15:42.758Z,5.10
2022-11-21T08:18:20.784Z,5.20
2022-11-21T08:20:48.306Z,5.20
2022-11-21T08:23:15.479Z,5.30
2022-11-21T08:25:43.961Z,5.30
2022-11-21T08:28:11.968Z,5.30
2022-11-21T08:30:40.603Z,5.30
2022-11-21T08:33:08.084Z,5.30
2022-11-21T08:35:38.583Z,5.30
2022-11-21T08:38:06.237Z,5.30
2022-11-21T08:40:34.103Z,5.30
2022-11-21T08:43:06.703Z,5.30
2022-11-21T08:45:35.326Z,5.30
2022-11-21T08:48:03.276Z,5.20
2022-11-21T08:50:30.586Z,5.20
2022-11-21T08:53:02.013Z,5.30
2022-11-21T08:55:30.394Z,5.20
2022-11-21T08:57:57.812Z,5.20
2022-11-21T09:00:25.174Z,5.20
2022-11-21T09:02:52.404Z,5.20
2022-11-21T09:05:19.590Z,5.20
2022-11-21T09:07:47.551Z,5.30
2022-11-21T09:10:15.366Z,5.30
2022-11-21T09:12:42.915Z,5.30
2022-11-21T09:15:30.178Z,5.30
2022-11-21T09:18:04.477Z,5.30
2022-11-21T09:20:34.499Z,5.30
2022-11-21T09:23:06.597Z,5.30
2022-11-21T09:25:34.405Z,5.30
2022-11-21T09:28:03.537Z,5.30
2022-11-21T09:30:30.888Z,5.30
2022-11-21T09:33:12.455Z,5.30
2022-11-21T09:35:39.693Z,5.30
2022-11-21T09:38:07.061Z,5.40
2022-11-21T09:40:35.383Z,5.40
2022-11-21T09:43:23.226Z,5.60
2022-11-21T09:45:52.569Z,5.70
2022-11-21T09:49:03.951Z,5.80
2022-11-21T09:51:32.247Z,5.80
2022-11-21T09:54:03.966Z,5.90
2022-11-21T09:56:33.710Z,6.10
2022-11-21T09:59:11.661Z,6.10
2022-11-21T10:01:39.150Z,6.20
2022-11-21T10:04:09.428Z,6.10
2022-11-21T10:06:48.064Z,6.20
2022-11-21T10:09:26.826Z,6.40
2022-11-21T10:12:40.130Z,6.50
2022-11-21T10:15:27.469Z,6.50
2022-11-21T10:18:05.893Z,6.50
2022-11-21T10:20:54.977Z,6.60
2022-11-21T10:23:25.247Z,6.80
2022-11-21T10:26:23.356Z,6.90
2022-11-21T10:28:53.339Z,7.00
2022-11-21T10:31:21.803Z,7.10
2022-11-21T10:33:52.189Z,7.10
2022-11-21T10:36:24.933Z,7.20
2022-11-21T10:38:54.263Z,7.10
2022-11-21T10:41:28.684Z,7.10
2022-11-21T10:44:50.116Z,7.20
2022-11-21T10:47:29.221Z,7.20
2022-11-21T10:50:08.366Z,7.10
2022-11-21T10:53:25.145Z,7.00
2022-11-21T10:56:02.579Z,7.00
2022-11-21T10:58:54.099Z,7.00
2022-11-21T11:01:32.847Z,7.10
2022-11-21T11:04:29.139Z,7.10
2022-11-21T11:06:56.431Z,7.00
2022-11-21T11:09:28.599Z,6.90
2022-11-21T11:12:17.395Z,6.90
2022-11-21T11:14:53.835Z,6.70
2022-11-21T11:17:32.658Z,6.70
2022-11-21T11:20:08.077Z,6.70
2022-11-21T11:22:35.361Z,6.70
2022-11-21T11:25:05.564Z,6.90
2022-11-21T11:27:32.781Z,7.30
2022-11-21T11:30:07.495Z,7.60
2022-11-21T11:32:40.087Z,7.70
2022-11-21T11:35:17.817Z,7.80
2022-11-21T11:38:04.467Z,8.20
2022-11-21T11:40:44.263Z,8.20
2022-11-21T11:43:30.074Z,8.20
2022-11-21T11:46:37.094Z,8.20
2022-11-21T11:49:20.369Z,8.10
2022-11-21T11:51:55.719Z,8.10
2022-11-21T11:54:34.387Z,8.00
2022-11-21T11:57:04.507Z,8.10
2022-11-21T11:59:59.568Z,8.10
2022-11-21T12:02:54.215Z,8.40
2022-11-21T12:05:26.995Z,8.40
2022-11-21T12:11:52.588Z,8.20
2022-11-21T12:15:22.731Z,8.10
2022-11-21T12:18:15.930Z,8.10
2022-11-21T12:21:00.619Z,8.30
2022-11-21T12:23:51.790Z,8.60
2022-11-21T12:26:39.646Z,8.80
2022-11-21T12:29:24.561Z,9.10
2022-11-21T12:32:19.465Z,9.60
2022-11-21T12:34:57.487Z,9.60
2022-11-21T12:38:07.524Z,9.70
2022-11-21T12:41:31.950Z,9.50
2022-11-21T12:44:28.551Z,9.30
2022-11-21T12:47:12.416Z,9.50
2022-11-21T12:50:31.932Z,9.30
2022-11-21T12:53:31.643Z,8.80
2022-11-21T12:56:05.907Z,8.40
2022-11-21T12:58:45.283Z,8.40
2022-11-21T13:01:21.476Z,8.30
2022-11-21T13:04:05.721Z,8.10
2022-11-21T13:06:40.705Z,8.00
2022-11-21T13:09:22.707Z,8.00
2022-11-21T13:12:08.041Z,7.90
2022-11-21T13:14:37.944Z,7.90
2022-11-21T13:17:30.579Z,8.00
2022-11-21T13:20:24.672Z,7.90
2022-11-21T13:23:02.159Z,7.80
2022-11-21T13:25:40.375Z,7.70
2022-11-21T13:28:13.802Z,7.70
2022-11-21T13:30:50.868Z,7.60
2022-11-21T13:33:36.437Z,7.60
2022-11-21T13:36:08.160Z,7.60
2022-11-21T13:38:58.343Z,7.50
2022-11-21T13:42:10.609Z,7.50
2022-11-21T13:44:41.792Z,7.50
2022-11-21T13:47:12.746Z,7.60
2022-11-21T13:49:53.422Z,7.60
2022-11-21T13:52:20.668Z,7.50
2022-11-21T13:55:03.178Z,7.50
2022-11-21T13:57:51.631Z,7.50
2022-11-21T14:00:39.658Z,7.50
2022-11-21T14:03:25.167Z,7.60
2022-11-21T14:06:03.604Z,7.70
2022-11-21T14:08:31.672Z,7.80
2022-11-21T14:10:59.171Z,7.80
2022-11-21T14:13:37.651Z,7.70
2022-11-21T14:16:42.261Z,7.60
2022-11-21T14:19:19.232Z,7.60
2022-11-21T14:21:49.028Z,7.50
2022-11-21T14:24:20.421Z,7.50
2022-11-21T14:26:50.840Z,7.40
2022-11-21T14:29:21.721Z,7.40
2022-11-21T14:31:50.349Z,7.30
2022-11-21T14:34:31.826Z,7.30
2022-11-21T14:37:05.491Z,7.20
2022-11-21T14:39:40.829Z,7.10
2022-11-21T14:42:16.707Z,7.00
2022-11-21T14:44:44.101Z,6.90
2022-11-21T14:47:25.757Z,6.80
2022-11-21T14:49:55.767Z,6.70
2022-11-21T14:52:22.978Z,6.60
2022-11-21T14:55:28.115Z,6.50
2022-11-21T14:57:43.689Z,6.40
2022-11-21T15:03:04.336Z,6.20
2022-11-21T15:06:01.455Z,6.10
2022-11-21T15:09:23.573Z,6.10
2022-11-21T15:11:15.297Z,5.90
2022-11-21T15:16:37.041Z,5.70
2022-11-21T15:19:18.385Z,5.70
2022-11-21T15:21:46.645Z,5.70
2022-11-21T15:24:19.237Z,5.70
2022-11-21T15:26:47.366Z,5.50
2022-11-21T15:29:21.263Z,5.50
2022-11-21T15:32:15.789Z,5.40
2022-11-21T15:34:43.803Z,5.40
2022-11-21T15:37:17.460Z,5.40
2022-11-21T15:42:34.573Z,5.30
2022-11-21T15:45:25.702Z,5.30
2022-11-21T15:47:53.357Z,5.30
2022-11-21T15:50:24.099Z,5.30
2022-11-21T15:52:52.488Z,5.30
2022-11-21T15:55:25.923Z,5.20
2022-11-21T15:57:10.597Z,5.40
2022-11-21T15:57:53.314Z,5.20
2022-11-21T16:00:20.620Z,5.20
2022-11-21T16:02:48.057Z,5.20
2022-11-21T16:05:16.299Z,5.20
2022-11-21T16:07:43.645Z,5.20
2022-11-21T16:10:19.796Z,5.20
2022-11-21T16:12:49.935Z,5.20
2022-11-21T16:15:17.239Z,5.20
2022-11-21T16:17:47.395Z,5.20
2022-11-21T16:20:15.282Z,5.10
2022-11-21T16:22:47.052Z,5.10
2022-11-21T16:25:14.915Z,5.10
2022-11-21T16:27:42.264Z,5.10
2022-11-21T16:30:09.901Z,5.10
2022-11-21T16:32:37.334Z,5.10
2022-11-21T16:35:05.244Z,5.10
2022-11-21T16:37:33.670Z,5.10
2022-11-21T16:40:00.884Z,5.10
2022-11-21T16:42:28.185Z,5.10
2022-11-21T16:44:55.585Z,5.00
2022-11-21T16:47:22.951Z,5.00
2022-11-21T16:49:50.239Z,5.00
2022-11-21T16:52:18.387Z,5.00
2022-11-21T16:54:47.011Z,5.10
2022-11-21T16:57:14.580Z,5.10
2022-11-21T16:59:43.246Z,5.10
2022-11-21T17:02:11.387Z,5.00
2022-11-21T17:04:38.582Z,4.90
2022-11-21T17:07:07.013Z,4.90
2022-11-21T17:09:35.131Z,4.90
2022-11-21T17:12:02.401Z,5.00
2022-11-21T17:14:29.799Z,5.00
2022-11-21T17:17:00.129Z,4.90
2022-11-21T17:19:27.500Z,4.90
2022-11-21T17:21:54.899Z,4.90
2022-11-21T17:24:22.253Z,4.90
2022-11-21T17:26:49.517Z,4.90
2022-11-21T17:29:16.860Z,5.00
2022-11-21T17:31:44.119Z,5.00
2022-11-21T17:34:11.895Z,4.90
2022-11-21T17:36:42.332Z,4.90
2022-11-21T17:39:11.295Z,4.90
2022-11-21T17:41:40.364Z,5.00
2022-11-21T17:44:07.803Z,5.00
2022-11-21T17:46:35.077Z,4.90
2022-11-21T17:49:02.536Z,4.90
2022-11-21T17:51:35.284Z,4.90
2022-11-21T17:54:03.302Z,4.90
2022-11-21T17:56:33.120Z,4.90
2022-11-21T17:59:00.624Z,4.90
2022-11-21T18:01:28.790Z,4.90
2022-11-21T18:04:01.837Z,4.90
2022-11-21T18:06:38.529Z,4.90
2022-11-21T18:09:07.843Z,4.80
2022-11-21T18:11:40.037Z,4.80
2022-11-21T18:14:10.237Z,4.80
2022-11-21T18:16:40.177Z,4.80
2022-11-21T18:19:10.519Z,4.80
2022-11-21T18:21:37.844Z,4.80
2022-11-21T18:24:05.357Z,4.80
2022-11-21T18:26:36.077Z,4.90
2022-11-21T18:29:35.550Z,4.80
2022-11-21T18:31:53.236Z,4.80
2022-11-21T18:34:20.651Z,4.80
2022-11-21T18:36:48.549Z,4.90
2022-11-21T18:39:16.033Z,4.90
2022-11-21T18:41:44.285Z,4.90
2022-11-21T18:44:17.060Z,4.90
2022-11-21T18:46:48.448Z,5.00
2022-11-21T18:49:16.713Z,5.00
2022-11-21T18:51:43.943Z,5.00
2022-11-21T18:54:11.940Z,5.00
2022-11-21T18:56:40.255Z,5.00
2022-11-21T18:59:07.904Z,5.00
2022-11-21T19:01:36.959Z,5.00
2022-11-21T19:04:05.298Z,5.00
2022-11-21T19:06:32.795Z,5.00
2022-11-21T19:09:00.056Z,5.00
2022-11-21T19:11:29.465Z,5.00
2022-11-21T19:13:57.965Z,5.10
2022-11-21T19:16:27.268Z,5.10
2022-11-21T19:21:43.260Z,5.10
2022-11-21T19:24:16.260Z,5.10
2022-11-21T19:26:43.794Z,5.10
2022-11-21T19:29:11.548Z,5.10
2022-11-21T19:31:44.561Z,5.20
2022-11-21T19:34:16.269Z,5.20
2022-11-21T19:36:44.489Z,5.20
2022-11-21T19:39:11.934Z,5.20
2022-11-21T19:41:39.885Z,5.20
2022-11-21T19:44:07.308Z,5.20
2022-11-21T19:46:38.116Z,5.30
2022-11-21T19:49:06.849Z,5.30
2022-11-21T19:51:39.814Z,5.30
2022-11-21T19:54:08.508Z,5.30
2022-11-21T19:56:39.244Z,5.30
2022-11-21T19:59:10.657Z,5.30
2022-11-21T20:01:38.851Z,5.30
2022-11-21T20:04:07.766Z,5.30
2022-11-21T20:06:42.049Z,5.30
2022-11-21T20:09:10.501Z,5.30
2022-11-21T20:11:40.189Z,5.30
2022-11-21T20:14:13.945Z,5.30
2022-11-21T20:16:49.604Z,5.30
2022-11-21T20:19:18.759Z,5.30
2022-11-21T20:21:47.411Z,5.30
2022-11-21T20:24:15.082Z,5.40
2022-11-21T20:26:42.837Z,5.40
2022-11-21T20:29:13.229Z,5.40
2022-11-21T20:31:40.624Z,5.40
2022-11-21T20:34:13.089Z,5.40
2022-11-21T20:36:41.245Z,5.50
2022-11-21T20:39:15.587Z,5.50
2022-11-21T20:41:42.921Z,5.50
2022-11-21T20:45:30.083Z,5.50
2022-11-21T20:47:07.803Z,5.50
2022-11-21T20:49:35.096Z,5.50
2022-11-21T20:54:52.275Z,5.40
2022-11-21T20:57:19.600Z,5.40
2022-11-21T20:59:46.646Z,5.40
2022-11-21T21:02:14.538Z,5.50
2022-11-21T21:04:42.547Z,5.50
2022-11-21T21:07:10.626Z,5.40
2022-11-21T21:09:37.882Z,5.50
2022-11-21T21:12:05.903Z,5.40
2022-11-21T21:14:33.232Z,5.50
2022-11-21T21:17:00.493Z,5.50
2022-11-21T21:19:28.301Z,5.50
2022-11-21T21:21:55.865Z,5.50
2022-11-21T21:24:24.392Z,5.50
2022-11-21T21:26:52.270Z,5.50
2022-11-21T21:29:21.257Z,5.50
2022-11-21T21:31:52.801Z,5.50
2022-11-21T21:34:22.019Z,5.60
2022-11-21T21:36:50.094Z,5.60
2022-11-21T21:39:17.406Z,5.50
2022-11-21T21:41:46.955Z,5.60
2022-11-21T21:44:15.104Z,5.60
2022-11-21T21:46:42.799Z,5.60
2022-11-21T21:49:10.104Z,5.60
2022-11-21T21:51:38.047Z,5.60
2022-11-21T21:54:06.712Z,5.60
2022-11-21T21:56:34.362Z,5.60
2022-11-21T21:59:02.008Z,5.60
2022-11-21T22:01:31.474Z,5.60
2022-11-21T22:04:00.990Z,5.60
2022-11-21T22:06:29.188Z,5.60
2022-11-21T22:08:56.665Z,5.60
2022-11-21T22:11:26.498Z,5.50
2022-11-21T22:14:05.169Z,5.50
2022-11-21T22:16:33.027Z,5.50
2022-11-21T22:19:00.316Z,5.50
2022-11-21T22:21:33.096Z,5.50
2022-11-21T22:24:24.380Z,5.50
2022-11-21T22:26:49.471Z,5.50
2022-11-21T22:29:17.037Z,5.50
2022-11-21T22:31:44.793Z,5.50
2022-11-21T22:34:14.845Z,5.40
2022-11-21T22:36:42.485Z,5.40
2022-11-21T22:39:09.952Z,5.40
2022-11-21T22:41:37.389Z,5.40
2022-11-21T22:44:05.014Z,5.30
2022-11-21T22:46:32.836Z,5.40
2022-11-21T22:49:00.090Z,5.30
2022-11-21T22:51:29.884Z,5.30
2022-11-21T22:53:57.810Z,5.30
2022-11-21T22:56:25.819Z,5.30
2022-11-21T22:58:53.883Z,5.20
2022-11-21T23:01:23.896Z,5.20
2022-11-21T23:03:52.121Z,5.20
2022-11-21T23:06:24.846Z,5.20
2022-11-21T23:08:53.240Z,5.10
2022-11-21T23:11:28.809Z,5.10
2022-11-21T23:13:57.237Z,5.10
2022-11-21T23:16:25.131Z,5.10
2022-11-21T23:18:54.111Z,5.10
2022-11-21T23:21:21.772Z,5.00
2022-11-21T23:23:49.087Z,5.10
2022-11-21T23:26:16.259Z,5.00
2022-11-21T23:28:43.508Z,5.00
2022-11-21T23:31:11.354Z,5.00
2022-11-21T23:33:38.881Z,5.00
2022-11-21T23:36:06.325Z,5.00
2022-11-21T23:38:33.719Z,5.00
2022-11-21T23:41:01.041Z,5.00
2022-11-21T23:43:28.237Z,5.00
2022-11-21T23:45:55.432Z,4.90
2022-11-21T23:48:24.359Z,5.00
2022-11-21T23:50:51.975Z,4.90
2022-11-21T23:53:20.281Z,5.00
2022-11-21T23:55:48.129Z,4.90
2022-11-21T23:58:16.208Z,4.90
